sensor_id;sensor_type;location;lat;lon;timestamp;P1;durP1;ratioP1;P2;durP2;ratioP2
7361;SDS011;3721;44.490;11.220;2022-08-01T00:00:09;7.10;;;2.03;;
7361;SDS011;3721;44.490;11.220;2022-08-01T00:02:38;5.33;;;1.90;;
7361;SDS011;3721;44.490;11.220;2022-08-01T00:05:04;3.10;;;1.83;;
7361;SDS011;3721;44.490;11.220;2022-08-01T00:07:33;3.50;;;1.80;;
7361;SDS011;3721;44.490;11.220;2022-08-01T00:10:00;4.73;;;1.90;;
7361;SDS011;3721;44.490;11.220;2022-08-01T00:12:27;3.87;;;2.07;;
7361;SDS011;3721;44.490;11.220;2022-08-01T00:14:53;3.27;;;1.70;;
7361;SDS011;3721;44.490;11.220;2022-08-01T00:17:19;3.30;;;1.90;;
7361;SDS011;3721;44.490;11.220;2022-08-01T00:19:44;4.53;;;2.00;;
7361;SDS011;3721;44.490;11.220;2022-08-01T00:22:10;4.57;;;2.20;;
7361;SDS011;3721;44.490;11.220;2022-08-01T00:24:36;3.73;;;2.13;;
7361;SDS011;3721;44.490;11.220;2022-08-01T00:27:02;3.57;;;1.80;;
7361;SDS011;3721;44.490;11.220;2022-08-01T00:29:27;6.23;;;2.00;;
7361;SDS011;3721;44.490;11.220;2022-08-01T00:31:53;3.80;;;2.27;;
7361;SDS011;3721;44.490;11.220;2022-08-01T00:34:19;3.97;;;1.70;;
7361;SDS011;3721;44.490;11.220;2022-08-01T00:36:45;3.40;;;1.70;;
7361;SDS011;3721;44.490;11.220;2022-08-01T00:39:11;4.10;;;1.90;;
7361;SDS011;3721;44.490;11.220;2022-08-01T00:41:37;3.10;;;1.80;;
7361;SDS011;3721;44.490;11.220;2022-08-01T00:44:03;3.80;;;1.70;;
7361;SDS011;3721;44.490;11.220;2022-08-01T00:46:30;3.40;;;1.80;;
7361;SDS011;3721;44.490;11.220;2022-08-01T00:48:57;3.70;;;1.90;;
7361;SDS011;3721;44.490;11.220;2022-08-01T00:51:23;3.60;;;2.20;;
7361;SDS011;3721;44.490;11.220;2022-08-01T00:53:51;3.47;;;1.83;;
7361;SDS011;3721;44.490;11.220;2022-08-01T00:56:19;5.23;;;2.07;;
7361;SDS011;3721;44.490;11.220;2022-08-01T00:58:45;4.23;;;2.07;;
7361;SDS011;3721;44.490;11.220;2022-08-01T01:01:11;3.00;;;1.60;;
7361;SDS011;3721;44.490;11.220;2022-08-01T01:03:37;3.30;;;1.87;;
7361;SDS011;3721;44.490;11.220;2022-08-01T01:08:41;4.60;;;2.00;;
7361;SDS011;3721;44.490;11.220;2022-08-01T01:11:15;4.93;;;1.90;;
7361;SDS011;3721;44.490;11.220;2022-08-01T01:13:49;3.30;;;1.77;;
7361;SDS011;3721;44.490;11.220;2022-08-01T01:16:19;4.57;;;2.00;;
7361;SDS011;3721;44.490;11.220;2022-08-01T01:18:47;2.90;;;1.70;;
7361;SDS011;3721;44.490;11.220;2022-08-01T01:27:05;3.30;;;1.87;;
7361;SDS011;3721;44.490;11.220;2022-08-01T01:29:52;4.00;;;1.97;;
7361;SDS011;3721;44.490;11.220;2022-08-01T01:32:31;4.10;;;2.00;;
7361;SDS011;3721;44.490;11.220;2022-08-01T01:35:02;7.63;;;1.90;;
7361;SDS011;3721;44.490;11.220;2022-08-01T01:37:34;3.40;;;2.00;;
7361;SDS011;3721;44.490;11.220;2022-08-01T01:40:03;6.53;;;1.80;;
7361;SDS011;3721;44.490;11.220;2022-08-01T01:42:30;3.40;;;2.00;;
7361;SDS011;3721;44.490;11.220;2022-08-01T01:44:58;4.27;;;2.07;;
7361;SDS011;3721;44.490;11.220;2022-08-01T01:47:25;3.37;;;1.97;;
7361;SDS011;3721;44.490;11.220;2022-08-01T01:49:52;4.47;;;1.90;;
7361;SDS011;3721;44.490;11.220;2022-08-01T01:52:20;5.97;;;1.80;;
7361;SDS011;3721;44.490;11.220;2022-08-01T01:54:49;6.30;;;1.97;;
7361;SDS011;3721;44.490;11.220;2022-08-01T01:57:16;4.60;;;2.13;;
7361;SDS011;3721;44.490;11.220;2022-08-01T01:59:44;3.50;;;1.80;;
7361;SDS011;3721;44.490;11.220;2022-08-01T02:02:11;3.30;;;1.80;;
7361;SDS011;3721;44.490;11.220;2022-08-01T02:04:42;4.00;;;2.23;;
7361;SDS011;3721;44.490;11.220;2022-08-01T02:07:10;5.87;;;2.00;;
7361;SDS011;3721;44.490;11.220;2022-08-01T02:09:38;3.63;;;1.87;;
7361;SDS011;3721;44.490;11.220;2022-08-01T02:12:06;3.30;;;1.80;;
7361;SDS011;3721;44.490;11.220;2022-08-01T02:14:35;6.10;;;2.33;;
7361;SDS011;3721;44.490;11.220;2022-08-01T02:17:05;3.70;;;2.00;;
7361;SDS011;3721;44.490;11.220;2022-08-01T02:19:32;3.90;;;1.97;;
7361;SDS011;3721;44.490;11.220;2022-08-01T02:27:17;4.30;;;2.03;;
7361;SDS011;3721;44.490;11.220;2022-08-01T02:29:52;3.40;;;1.80;;
7361;SDS011;3721;44.490;11.220;2022-08-01T02:32:24;3.60;;;2.00;;
7361;SDS011;3721;44.490;11.220;2022-08-01T02:34:54;3.33;;;1.97;;
7361;SDS011;3721;44.490;11.220;2022-08-01T02:37:23;5.40;;;2.30;;
7361;SDS011;3721;44.490;11.220;2022-08-01T02:39:52;4.97;;;2.20;;
7361;SDS011;3721;44.490;11.220;2022-08-01T02:42:19;5.10;;;1.67;;
7361;SDS011;3721;44.490;11.220;2022-08-01T02:44:49;3.93;;;2.40;;
7361;SDS011;3721;44.490;11.220;2022-08-01T02:47:17;3.43;;;1.90;;
7361;SDS011;3721;44.490;11.220;2022-08-01T02:49:46;3.77;;;2.10;;
7361;SDS011;3721;44.490;11.220;2022-08-01T02:52:15;3.87;;;2.27;;
7361;SDS011;3721;44.490;11.220;2022-08-01T02:54:45;3.30;;;1.83;;
7361;SDS011;3721;44.490;11.220;2022-08-01T02:57:14;10.07;;;2.67;;
7361;SDS011;3721;44.490;11.220;2022-08-01T02:59:42;3.40;;;2.10;;
7361;SDS011;3721;44.490;11.220;2022-08-01T03:02:09;4.17;;;2.43;;
7361;SDS011;3721;44.490;11.220;2022-08-01T03:04:37;4.03;;;2.20;;
7361;SDS011;3721;44.490;11.220;2022-08-01T03:07:06;5.13;;;2.10;;
7361;SDS011;3721;44.490;11.220;2022-08-01T03:09:35;3.77;;;2.00;;
7361;SDS011;3721;44.490;11.220;2022-08-01T03:12:04;4.60;;;1.90;;
7361;SDS011;3721;44.490;11.220;2022-08-01T03:14:39;3.10;;;1.77;;
7361;SDS011;3721;44.490;11.220;2022-08-01T03:17:06;3.43;;;2.03;;
7361;SDS011;3721;44.490;11.220;2022-08-01T03:19:33;4.40;;;1.90;;
7361;SDS011;3721;44.490;11.220;2022-08-01T03:22:01;4.40;;;2.40;;
7361;SDS011;3721;44.490;11.220;2022-08-01T03:24:28;4.03;;;2.10;;
7361;SDS011;3721;44.490;11.220;2022-08-01T03:26:56;3.47;;;2.00;;
7361;SDS011;3721;44.490;11.220;2022-08-01T03:29:24;3.77;;;2.27;;
7361;SDS011;3721;44.490;11.220;2022-08-01T03:31:52;3.97;;;2.10;;
7361;SDS011;3721;44.490;11.220;2022-08-01T03:34:18;8.00;;;2.30;;
7361;SDS011;3721;44.490;11.220;2022-08-01T03:36:49;3.60;;;2.20;;
7361;SDS011;3721;44.490;11.220;2022-08-01T03:39:30;3.50;;;2.07;;
7361;SDS011;3721;44.490;11.220;2022-08-01T03:42:00;5.00;;;1.90;;
7361;SDS011;3721;44.490;11.220;2022-08-01T03:44:31;3.30;;;2.00;;
7361;SDS011;3721;44.490;11.220;2022-08-01T03:47:02;3.93;;;2.30;;
7361;SDS011;3721;44.490;11.220;2022-08-01T03:49:32;3.90;;;2.10;;
7361;SDS011;3721;44.490;11.220;2022-08-01T03:52:03;3.50;;;1.77;;
7361;SDS011;3721;44.490;11.220;2022-08-01T03:54:35;3.50;;;1.80;;
7361;SDS011;3721;44.490;11.220;2022-08-01T03:57:03;3.73;;;2.10;;
7361;SDS011;3721;44.490;11.220;2022-08-01T03:59:30;3.30;;;1.97;;
7361;SDS011;3721;44.490;11.220;2022-08-01T04:01:59;7.53;;;2.30;;
7361;SDS011;3721;44.490;11.220;2022-08-01T04:04:26;4.00;;;2.03;;
7361;SDS011;3721;44.490;11.220;2022-08-01T04:06:53;3.50;;;2.10;;
7361;SDS011;3721;44.490;11.220;2022-08-01T04:09:19;4.10;;;2.00;;
7361;SDS011;3721;44.490;11.220;2022-08-01T04:11:46;3.60;;;1.90;;
7361;SDS011;3721;44.490;11.220;2022-08-01T04:14:12;3.40;;;2.07;;
7361;SDS011;3721;44.490;11.220;2022-08-01T04:16:38;4.13;;;2.10;;
7361;SDS011;3721;44.490;11.220;2022-08-01T04:19:04;2.87;;;1.70;;
7361;SDS011;3721;44.490;11.220;2022-08-01T04:21:32;5.80;;;2.03;;
7361;SDS011;3721;44.490;11.220;2022-08-01T04:24:00;4.90;;;2.40;;
7361;SDS011;3721;44.490;11.220;2022-08-01T04:26:30;4.90;;;2.10;;
7361;SDS011;3721;44.490;11.220;2022-08-01T04:29:00;5.23;;;2.37;;
7361;SDS011;3721;44.490;11.220;2022-08-01T04:31:29;6.50;;;2.20;;
7361;SDS011;3721;44.490;11.220;2022-08-01T04:33:56;4.60;;;2.50;;
7361;SDS011;3721;44.490;11.220;2022-08-01T04:36:24;3.20;;;1.90;;
7361;SDS011;3721;44.490;11.220;2022-08-01T04:38:52;3.67;;;2.20;;
7361;SDS011;3721;44.490;11.220;2022-08-01T04:41:22;6.47;;;2.20;;
7361;SDS011;3721;44.490;11.220;2022-08-01T04:43:49;4.07;;;2.40;;
7361;SDS011;3721;44.490;11.220;2022-08-01T04:46:16;3.77;;;2.07;;
7361;SDS011;3721;44.490;11.220;2022-08-01T04:48:43;3.77;;;2.00;;
7361;SDS011;3721;44.490;11.220;2022-08-01T04:51:16;3.40;;;2.07;;
7361;SDS011;3721;44.490;11.220;2022-08-01T04:53:46;3.53;;;1.83;;
7361;SDS011;3721;44.490;11.220;2022-08-01T04:56:12;4.30;;;2.13;;
7361;SDS011;3721;44.490;11.220;2022-08-01T04:58:41;4.67;;;1.90;;
7361;SDS011;3721;44.490;11.220;2022-08-01T05:01:08;5.10;;;2.20;;
7361;SDS011;3721;44.490;11.220;2022-08-01T05:03:34;4.50;;;2.40;;
7361;SDS011;3721;44.490;11.220;2022-08-01T05:06:00;3.37;;;2.13;;
7361;SDS011;3721;44.490;11.220;2022-08-01T05:08:26;3.90;;;2.03;;
7361;SDS011;3721;44.490;11.220;2022-08-01T05:10:52;4.30;;;2.20;;
7361;SDS011;3721;44.490;11.220;2022-08-01T05:13:18;3.17;;;1.97;;
7361;SDS011;3721;44.490;11.220;2022-08-01T05:15:44;3.87;;;1.97;;
7361;SDS011;3721;44.490;11.220;2022-08-01T05:18:10;4.47;;;2.10;;
7361;SDS011;3721;44.490;11.220;2022-08-01T05:20:36;5.50;;;2.40;;
7361;SDS011;3721;44.490;11.220;2022-08-01T05:23:03;3.97;;;2.23;;
7361;SDS011;3721;44.490;11.220;2022-08-01T05:25:31;9.20;;;2.60;;
7361;SDS011;3721;44.490;11.220;2022-08-01T05:27:58;8.13;;;2.60;;
7361;SDS011;3721;44.490;11.220;2022-08-01T05:30:24;6.97;;;2.30;;
7361;SDS011;3721;44.490;11.220;2022-08-01T05:32:49;7.87;;;3.00;;
7361;SDS011;3721;44.490;11.220;2022-08-01T05:35:15;9.57;;;2.80;;
7361;SDS011;3721;44.490;11.220;2022-08-01T05:37:41;5.30;;;2.53;;
7361;SDS011;3721;44.490;11.220;2022-08-01T05:40:07;5.33;;;2.37;;
7361;SDS011;3721;44.490;11.220;2022-08-01T05:42:33;4.17;;;2.23;;
7361;SDS011;3721;44.490;11.220;2022-08-01T05:44:59;4.40;;;2.03;;
7361;SDS011;3721;44.490;11.220;2022-08-01T05:47:24;6.40;;;2.53;;
7361;SDS011;3721;44.490;11.220;2022-08-01T05:49:50;5.20;;;2.53;;
7361;SDS011;3721;44.490;11.220;2022-08-01T05:52:16;5.50;;;2.40;;
7361;SDS011;3721;44.490;11.220;2022-08-01T05:54:42;5.10;;;2.60;;
7361;SDS011;3721;44.490;11.220;2022-08-01T05:57:07;5.70;;;2.50;;
7361;SDS011;3721;44.490;11.220;2022-08-01T05:59:33;5.70;;;2.50;;
7361;SDS011;3721;44.490;11.220;2022-08-01T06:01:59;4.67;;;2.50;;
7361;SDS011;3721;44.490;11.220;2022-08-01T06:04:25;5.70;;;2.40;;
7361;SDS011;3721;44.490;11.220;2022-08-01T06:06:51;4.53;;;2.50;;
7361;SDS011;3721;44.490;11.220;2022-08-01T06:09:16;5.00;;;2.60;;
7361;SDS011;3721;44.490;11.220;2022-08-01T06:11:42;6.60;;;3.13;;
7361;SDS011;3721;44.490;11.220;2022-08-01T06:14:08;5.53;;;2.70;;
7361;SDS011;3721;44.490;11.220;2022-08-01T06:16:34;8.00;;;2.67;;
7361;SDS011;3721;44.490;11.220;2022-08-01T06:18:59;6.20;;;2.53;;
7361;SDS011;3721;44.490;11.220;2022-08-01T06:21:25;4.00;;;2.60;;
7361;SDS011;3721;44.490;11.220;2022-08-01T06:23:51;5.63;;;2.97;;
7361;SDS011;3721;44.490;11.220;2022-08-01T06:26:17;3.93;;;2.20;;
7361;SDS011;3721;44.490;11.220;2022-08-01T06:28:43;3.70;;;2.50;;
7361;SDS011;3721;44.490;11.220;2022-08-01T06:31:09;4.80;;;2.23;;
7361;SDS011;3721;44.490;11.220;2022-08-01T06:33:37;3.93;;;2.27;;
7361;SDS011;3721;44.490;11.220;2022-08-01T06:36:03;13.73;;;2.50;;
7361;SDS011;3721;44.490;11.220;2022-08-01T06:38:28;5.47;;;2.63;;
7361;SDS011;3721;44.490;11.220;2022-08-01T06:40:54;4.90;;;2.40;;
7361;SDS011;3721;44.490;11.220;2022-08-01T06:43:20;4.30;;;2.20;;
7361;SDS011;3721;44.490;11.220;2022-08-01T06:45:46;6.40;;;3.77;;
7361;SDS011;3721;44.490;11.220;2022-08-01T06:48:12;4.40;;;2.63;;
7361;SDS011;3721;44.490;11.220;2022-08-01T06:50:38;9.07;;;4.13;;
7361;SDS011;3721;44.490;11.220;2022-08-01T06:53:03;8.33;;;3.60;;
7361;SDS011;3721;44.490;11.220;2022-08-01T06:55:30;6.97;;;4.07;;
7361;SDS011;3721;44.490;11.220;2022-08-01T06:57:56;6.17;;;2.90;;
7361;SDS011;3721;44.490;11.220;2022-08-01T07:00:22;7.83;;;3.80;;
7361;SDS011;3721;44.490;11.220;2022-08-01T07:02:49;11.43;;;3.63;;
7361;SDS011;3721;44.490;11.220;2022-08-01T07:05:17;4.53;;;2.87;;
7361;SDS011;3721;44.490;11.220;2022-08-01T07:07:43;8.60;;;2.83;;
7361;SDS011;3721;44.490;11.220;2022-08-01T07:10:09;6.30;;;2.50;;
7361;SDS011;3721;44.490;11.220;2022-08-01T07:12:35;7.03;;;2.67;;
7361;SDS011;3721;44.490;11.220;2022-08-01T07:15:06;9.90;;;3.60;;
7361;SDS011;3721;44.490;11.220;2022-08-01T07:17:36;11.53;;;3.03;;
7361;SDS011;3721;44.490;11.220;2022-08-01T07:20:03;6.10;;;2.23;;
7361;SDS011;3721;44.490;11.220;2022-08-01T07:22:29;4.90;;;2.43;;
7361;SDS011;3721;44.490;11.220;2022-08-01T07:24:54;5.30;;;2.40;;
7361;SDS011;3721;44.490;11.220;2022-08-01T07:27:20;4.07;;;2.50;;
7361;SDS011;3721;44.490;11.220;2022-08-01T07:29:46;5.90;;;2.50;;
7361;SDS011;3721;44.490;11.220;2022-08-01T07:32:12;7.90;;;2.40;;
7361;SDS011;3721;44.490;11.220;2022-08-01T07:34:37;9.90;;;2.30;;
7361;SDS011;3721;44.490;11.220;2022-08-01T07:37:03;4.87;;;2.50;;
7361;SDS011;3721;44.490;11.220;2022-08-01T07:39:29;3.83;;;2.50;;
7361;SDS011;3721;44.490;11.220;2022-08-01T07:41:55;4.30;;;2.40;;
7361;SDS011;3721;44.490;11.220;2022-08-01T07:44:21;5.33;;;2.60;;
7361;SDS011;3721;44.490;11.220;2022-08-01T07:46:47;7.33;;;2.60;;
7361;SDS011;3721;44.490;11.220;2022-08-01T07:49:12;4.73;;;2.67;;
7361;SDS011;3721;44.490;11.220;2022-08-01T07:51:38;5.50;;;2.20;;
7361;SDS011;3721;44.490;11.220;2022-08-01T07:54:04;7.33;;;2.50;;
7361;SDS011;3721;44.490;11.220;2022-08-01T07:56:29;5.10;;;2.00;;
7361;SDS011;3721;44.490;11.220;2022-08-01T07:58:55;3.40;;;2.10;;
7361;SDS011;3721;44.490;11.220;2022-08-01T08:01:21;6.37;;;2.10;;
7361;SDS011;3721;44.490;11.220;2022-08-01T08:03:47;3.40;;;2.20;;
7361;SDS011;3721;44.490;11.220;2022-08-01T08:06:12;7.73;;;2.30;;
7361;SDS011;3721;44.490;11.220;2022-08-01T08:08:38;5.93;;;2.00;;
7361;SDS011;3721;44.490;11.220;2022-08-01T08:11:04;4.00;;;2.70;;
7361;SDS011;3721;44.490;11.220;2022-08-01T08:13:30;4.97;;;2.73;;
7361;SDS011;3721;44.490;11.220;2022-08-01T08:15:55;4.70;;;2.50;;
7361;SDS011;3721;44.490;11.220;2022-08-01T08:18:23;5.23;;;2.40;;
7361;SDS011;3721;44.490;11.220;2022-08-01T08:20:49;4.07;;;2.30;;
7361;SDS011;3721;44.490;11.220;2022-08-01T08:23:14;4.77;;;2.03;;
7361;SDS011;3721;44.490;11.220;2022-08-01T08:25:59;9.67;;;2.33;;
7361;SDS011;3721;44.490;11.220;2022-08-01T08:28:25;4.57;;;2.40;;
7361;SDS011;3721;44.490;11.220;2022-08-01T08:30:50;4.60;;;2.37;;
7361;SDS011;3721;44.490;11.220;2022-08-01T08:33:18;4.50;;;2.33;;
7361;SDS011;3721;44.490;11.220;2022-08-01T08:35:43;5.30;;;2.60;;
7361;SDS011;3721;44.490;11.220;2022-08-01T08:38:09;7.03;;;2.40;;
7361;SDS011;3721;44.490;11.220;2022-08-01T08:40:35;8.10;;;2.50;;
7361;SDS011;3721;44.490;11.220;2022-08-01T08:43:04;7.60;;;3.07;;
7361;SDS011;3721;44.490;11.220;2022-08-01T08:45:31;5.90;;;2.73;;
7361;SDS011;3721;44.490;11.220;2022-08-01T08:47:57;5.43;;;2.53;;
7361;SDS011;3721;44.490;11.220;2022-08-01T08:50:24;7.20;;;2.80;;
7361;SDS011;3721;44.490;11.220;2022-08-01T08:52:52;3.97;;;2.40;;
7361;SDS011;3721;44.490;11.220;2022-08-01T08:55:19;3.50;;;1.97;;
7361;SDS011;3721;44.490;11.220;2022-08-01T08:57:47;6.57;;;2.40;;
7361;SDS011;3721;44.490;11.220;2022-08-01T09:00:13;5.47;;;2.83;;
7361;SDS011;3721;44.490;11.220;2022-08-01T09:02:43;5.30;;;2.33;;
7361;SDS011;3721;44.490;11.220;2022-08-01T09:05:10;5.70;;;2.80;;
7361;SDS011;3721;44.490;11.220;2022-08-01T09:07:36;5.40;;;2.50;;
7361;SDS011;3721;44.490;11.220;2022-08-01T09:10:03;6.80;;;2.33;;
7361;SDS011;3721;44.490;11.220;2022-08-01T09:12:29;4.03;;;2.57;;
7361;SDS011;3721;44.490;11.220;2022-08-01T09:14:55;3.57;;;2.33;;
7361;SDS011;3721;44.490;11.220;2022-08-01T09:17:21;4.60;;;2.47;;
7361;SDS011;3721;44.490;11.220;2022-08-01T09:19:48;4.30;;;2.60;;
7361;SDS011;3721;44.490;11.220;2022-08-01T09:22:19;4.50;;;2.47;;
7361;SDS011;3721;44.490;11.220;2022-08-01T09:24:59;4.50;;;2.20;;
7361;SDS011;3721;44.490;11.220;2022-08-01T09:27:25;7.23;;;3.00;;
7361;SDS011;3721;44.490;11.220;2022-08-01T09:29:52;3.90;;;2.30;;
7361;SDS011;3721;44.490;11.220;2022-08-01T09:32:19;4.37;;;2.30;;
7361;SDS011;3721;44.490;11.220;2022-08-01T09:34:45;4.40;;;2.10;;
7361;SDS011;3721;44.490;11.220;2022-08-01T09:37:11;3.90;;;2.40;;
7361;SDS011;3721;44.490;11.220;2022-08-01T09:39:42;7.10;;;2.70;;
7361;SDS011;3721;44.490;11.220;2022-08-01T09:42:20;8.30;;;2.53;;
7361;SDS011;3721;44.490;11.220;2022-08-01T09:44:50;4.23;;;2.50;;
7361;SDS011;3721;44.490;11.220;2022-08-01T09:47:16;4.87;;;3.17;;
7361;SDS011;3721;44.490;11.220;2022-08-01T09:49:45;6.53;;;3.10;;
7361;SDS011;3721;44.490;11.220;2022-08-01T09:52:25;4.73;;;3.30;;
7361;SDS011;3721;44.490;11.220;2022-08-01T09:54:56;6.20;;;4.68;;
7361;SDS011;3721;44.490;11.220;2022-08-01T09:57:28;5.40;;;4.22;;
7361;SDS011;3721;44.490;11.220;2022-08-01T09:59:55;7.63;;;5.63;;
7361;SDS011;3721;44.490;11.220;2022-08-01T10:02:32;9.00;;;7.20;;
7361;SDS011;3721;44.490;11.220;2022-08-01T10:05:04;8.23;;;6.53;;
7361;SDS011;3721;44.490;11.220;2022-08-01T10:07:32;7.80;;;5.33;;
7361;SDS011;3721;44.490;11.220;2022-08-01T10:10:11;7.60;;;6.30;;
7361;SDS011;3721;44.490;11.220;2022-08-01T10:12:38;7.10;;;6.10;;
7361;SDS011;3721;44.490;11.220;2022-08-01T10:15:05;8.13;;;6.60;;
7361;SDS011;3721;44.490;11.220;2022-08-01T10:17:32;8.20;;;5.47;;
7361;SDS011;3721;44.490;11.220;2022-08-01T10:19:59;9.07;;;6.10;;
7361;SDS011;3721;44.490;11.220;2022-08-01T10:22:27;6.60;;;5.13;;
7361;SDS011;3721;44.490;11.220;2022-08-01T10:24:55;6.03;;;4.03;;
7361;SDS011;3721;44.490;11.220;2022-08-01T10:27:24;7.67;;;4.00;;
7361;SDS011;3721;44.490;11.220;2022-08-01T10:30:01;6.30;;;4.50;;
7361;SDS011;3721;44.490;11.220;2022-08-01T10:32:30;5.72;;;4.55;;
7361;SDS011;3721;44.490;11.220;2022-08-01T10:34:56;6.50;;;4.37;;
7361;SDS011;3721;44.490;11.220;2022-08-01T10:37:23;7.23;;;4.30;;
7361;SDS011;3721;44.490;11.220;2022-08-01T10:39:50;5.28;;;2.95;;
7361;SDS011;3721;44.490;11.220;2022-08-01T10:42:17;6.32;;;3.30;;
7361;SDS011;3721;44.490;11.220;2022-08-01T10:44:43;4.60;;;3.13;;
7361;SDS011;3721;44.490;11.220;2022-08-01T10:47:13;10.82;;;2.97;;
7361;SDS011;3721;44.490;11.220;2022-08-01T10:49:47;6.43;;;3.30;;
7361;SDS011;3721;44.490;11.220;2022-08-01T10:52:19;7.07;;;2.63;;
7361;SDS011;3721;44.490;11.220;2022-08-01T10:54:45;5.07;;;3.17;;
7361;SDS011;3721;44.490;11.220;2022-08-01T10:57:12;6.00;;;3.50;;
7361;SDS011;3721;44.490;11.220;2022-08-01T10:59:48;4.85;;;2.88;;
7361;SDS011;3721;44.490;11.220;2022-08-01T11:02:28;4.35;;;2.78;;
7361;SDS011;3721;44.490;11.220;2022-08-01T11:08:00;4.70;;;3.00;;
7361;SDS011;3721;44.490;11.220;2022-08-01T11:10:22;3.78;;;2.42;;
7361;SDS011;3721;44.490;11.220;2022-08-01T11:12:55;7.45;;;2.90;;
7361;SDS011;3721;44.490;11.220;2022-08-01T11:15:21;6.97;;;3.10;;
7361;SDS011;3721;44.490;11.220;2022-08-01T11:17:52;5.55;;;2.88;;
7361;SDS011;3721;44.490;11.220;2022-08-01T11:30:45;6.70;;;3.35;;
7361;SDS011;3721;44.490;11.220;2022-08-01T11:33:12;5.80;;;3.38;;
7361;SDS011;3721;44.490;11.220;2022-08-01T11:38:36;4.43;;;2.92;;
7361;SDS011;3721;44.490;11.220;2022-08-01T11:57:14;4.60;;;2.97;;
7361;SDS011;3721;44.490;11.220;2022-08-01T11:59:44;4.32;;;3.13;;
7361;SDS011;3721;44.490;11.220;2022-08-01T12:02:15;5.55;;;3.05;;
7361;SDS011;3721;44.490;11.220;2022-08-01T12:07:19;5.30;;;3.13;;
7361;SDS011;3721;44.490;11.220;2022-08-01T12:09:46;4.45;;;2.70;;
7361;SDS011;3721;44.490;11.220;2022-08-01T12:12:16;9.20;;;2.90;;
7361;SDS011;3721;44.490;11.220;2022-08-01T12:14:42;7.45;;;2.90;;
7361;SDS011;3721;44.490;11.220;2022-08-01T12:17:09;6.45;;;3.00;;
7361;SDS011;3721;44.490;11.220;2022-08-01T12:19:35;5.18;;;2.63;;
7361;SDS011;3721;44.490;11.220;2022-08-01T12:22:05;4.00;;;2.83;;
7361;SDS011;3721;44.490;11.220;2022-08-01T12:24:36;3.95;;;2.70;;
7361;SDS011;3721;44.490;11.220;2022-08-01T12:27:04;6.05;;;2.55;;
7361;SDS011;3721;44.490;11.220;2022-08-01T12:29:34;7.00;;;2.75;;
7361;SDS011;3721;44.490;11.220;2022-08-01T12:32:15;3.72;;;2.33;;
7361;SDS011;3721;44.490;11.220;2022-08-01T12:34:47;3.97;;;2.47;;
7361;SDS011;3721;44.490;11.220;2022-08-01T12:37:14;5.15;;;2.83;;
7361;SDS011;3721;44.490;11.220;2022-08-01T12:39:40;5.93;;;2.65;;
7361;SDS011;3721;44.490;11.220;2022-08-01T12:42:09;3.72;;;2.50;;
7361;SDS011;3721;44.490;11.220;2022-08-01T12:44:36;5.88;;;2.60;;
7361;SDS011;3721;44.490;11.220;2022-08-01T12:47:04;4.78;;;3.00;;
7361;SDS011;3721;44.490;11.220;2022-08-01T12:49:32;5.63;;;2.75;;
7361;SDS011;3721;44.490;11.220;2022-08-01T12:52:00;3.88;;;2.15;;
7361;SDS011;3721;44.490;11.220;2022-08-01T12:54:26;11.90;;;2.35;;
7361;SDS011;3721;44.490;11.220;2022-08-01T12:56:52;3.42;;;2.13;;
7361;SDS011;3721;44.490;11.220;2022-08-01T12:59:19;3.78;;;2.35;;
7361;SDS011;3721;44.490;11.220;2022-08-01T13:01:55;4.95;;;2.13;;
7361;SDS011;3721;44.490;11.220;2022-08-01T13:04:21;4.45;;;2.28;;
7361;SDS011;3721;44.490;11.220;2022-08-01T13:06:48;4.07;;;2.45;;
7361;SDS011;3721;44.490;11.220;2022-08-01T13:09:18;7.90;;;2.97;;
7361;SDS011;3721;44.490;11.220;2022-08-01T13:11:44;4.07;;;2.58;;
7361;SDS011;3721;44.490;11.220;2022-08-01T13:14:26;7.97;;;2.50;;
7361;SDS011;3721;44.490;11.220;2022-08-01T13:16:52;4.85;;;2.72;;
7361;SDS011;3721;44.490;11.220;2022-08-01T13:19:18;3.65;;;2.20;;
7361;SDS011;3721;44.490;11.220;2022-08-01T13:21:53;3.95;;;2.50;;
7361;SDS011;3721;44.490;11.220;2022-08-01T13:24:25;4.82;;;2.22;;
7361;SDS011;3721;44.490;11.220;2022-08-01T13:29:29;3.55;;;2.28;;
7361;SDS011;3721;44.490;11.220;2022-08-01T13:31:59;4.55;;;2.22;;
7361;SDS011;3721;44.490;11.220;2022-08-01T13:34:36;3.67;;;2.40;;
7361;SDS011;3721;44.490;11.220;2022-08-01T13:37:02;3.30;;;2.50;;
7361;SDS011;3721;44.490;11.220;2022-08-01T13:39:28;6.30;;;2.40;;
7361;SDS011;3721;44.490;11.220;2022-08-01T13:42:07;3.30;;;2.10;;
7361;SDS011;3721;44.490;11.220;2022-08-01T13:44:34;4.55;;;2.47;;
7361;SDS011;3721;44.490;11.220;2022-08-01T13:47:00;3.95;;;2.45;;
7361;SDS011;3721;44.490;11.220;2022-08-01T13:49:27;4.47;;;2.10;;
7361;SDS011;3721;44.490;11.220;2022-08-01T13:51:53;4.32;;;2.33;;
7361;SDS011;3721;44.490;11.220;2022-08-01T13:54:19;4.35;;;2.20;;
7361;SDS011;3721;44.490;11.220;2022-08-01T13:56:45;4.07;;;2.65;;
7361;SDS011;3721;44.490;11.220;2022-08-01T13:59:11;3.50;;;2.35;;
7361;SDS011;3721;44.490;11.220;2022-08-01T14:01:37;5.78;;;2.30;;
7361;SDS011;3721;44.490;11.220;2022-08-01T14:04:03;3.80;;;2.17;;
7361;SDS011;3721;44.490;11.220;2022-08-01T14:06:30;3.88;;;1.98;;
7361;SDS011;3721;44.490;11.220;2022-08-01T14:08:57;4.50;;;2.30;;
7361;SDS011;3721;44.490;11.220;2022-08-01T14:11:23;4.10;;;1.92;;
7361;SDS011;3721;44.490;11.220;2022-08-01T14:13:49;3.33;;;1.90;;
7361;SDS011;3721;44.490;11.220;2022-08-01T14:16:14;3.58;;;2.00;;
7361;SDS011;3721;44.490;11.220;2022-08-01T14:18:41;6.47;;;2.15;;
7361;SDS011;3721;44.490;11.220;2022-08-01T14:21:07;3.60;;;2.17;;
7361;SDS011;3721;44.490;11.220;2022-08-01T14:23:32;4.25;;;1.90;;
7361;SDS011;3721;44.490;11.220;2022-08-01T14:25:58;5.13;;;2.10;;
7361;SDS011;3721;44.490;11.220;2022-08-01T14:28:24;6.85;;;2.28;;
7361;SDS011;3721;44.490;11.220;2022-08-01T14:30:52;3.42;;;2.05;;
7361;SDS011;3721;44.490;11.220;2022-08-01T14:33:20;4.18;;;2.60;;
7361;SDS011;3721;44.490;11.220;2022-08-01T14:35:46;5.18;;;2.25;;
7361;SDS011;3721;44.490;11.220;2022-08-01T14:38:12;3.40;;;2.08;;
7361;SDS011;3721;44.490;11.220;2022-08-01T14:40:38;3.67;;;2.15;;
7361;SDS011;3721;44.490;11.220;2022-08-01T14:43:05;5.03;;;2.10;;
7361;SDS011;3721;44.490;11.220;2022-08-01T14:45:31;4.03;;;1.77;;
7361;SDS011;3721;44.490;11.220;2022-08-01T14:47:58;4.30;;;2.00;;
7361;SDS011;3721;44.490;11.220;2022-08-01T14:50:24;3.88;;;1.70;;
7361;SDS011;3721;44.490;11.220;2022-08-01T14:52:52;3.22;;;1.70;;
7361;SDS011;3721;44.490;11.220;2022-08-01T14:55:19;3.80;;;1.90;;
7361;SDS011;3721;44.490;11.220;2022-08-01T14:57:48;4.78;;;1.73;;
7361;SDS011;3721;44.490;11.220;2022-08-01T15:00:15;4.30;;;1.98;;
7361;SDS011;3721;44.490;11.220;2022-08-01T15:02:41;4.00;;;1.80;;
7361;SDS011;3721;44.490;11.220;2022-08-01T15:05:07;2.90;;;1.60;;
7361;SDS011;3721;44.490;11.220;2022-08-01T15:07:34;3.95;;;1.63;;
7361;SDS011;3721;44.490;11.220;2022-08-01T15:10:03;4.32;;;1.60;;
7361;SDS011;3721;44.490;11.220;2022-08-01T15:12:30;11.48;;;1.80;;
7361;SDS011;3721;44.490;11.220;2022-08-01T15:14:56;3.25;;;1.80;;
7361;SDS011;3721;44.490;11.220;2022-08-01T15:17:29;3.55;;;1.70;;
7361;SDS011;3721;44.490;11.220;2022-08-01T15:19:58;2.80;;;1.38;;
7361;SDS011;3721;44.490;11.220;2022-08-01T15:22:25;3.80;;;1.58;;
7361;SDS011;3721;44.490;11.220;2022-08-01T15:24:52;4.03;;;1.40;;
7361;SDS011;3721;44.490;11.220;2022-08-01T15:27:19;4.45;;;1.80;;
7361;SDS011;3721;44.490;11.220;2022-08-01T15:29:46;2.70;;;1.42;;
7361;SDS011;3721;44.490;11.220;2022-08-01T15:32:12;4.47;;;1.63;;
7361;SDS011;3721;44.490;11.220;2022-08-01T15:34:39;3.00;;;1.60;;
7361;SDS011;3721;44.490;11.220;2022-08-01T15:37:06;4.28;;;1.60;;
7361;SDS011;3721;44.490;11.220;2022-08-01T15:39:32;2.78;;;1.60;;
7361;SDS011;3721;44.490;11.220;2022-08-01T15:41:59;3.95;;;1.63;;
7361;SDS011;3721;44.490;11.220;2022-08-01T15:44:27;3.95;;;1.88;;
7361;SDS011;3721;44.490;11.220;2022-08-01T15:46:53;7.85;;;2.10;;
7361;SDS011;3721;44.490;11.220;2022-08-01T15:49:19;8.18;;;1.60;;
7361;SDS011;3721;44.490;11.220;2022-08-01T15:51:47;2.90;;;1.50;;
7361;SDS011;3721;44.490;11.220;2022-08-01T15:54:13;5.85;;;1.75;;